createdAt,value
2022-11-09T00:00:51.660Z,8.35
2022-11-09T00:03:19.318Z,8.30
2022-11-09T00:05:56.463Z,8.46
2022-11-09T00:08:23.562Z,8.32
2022-11-09T00:10:50.452Z,8.23
2022-11-09T00:13:17.751Z,8.20
2022-11-09T00:15:45.173Z,8.20
2022-11-09T00:18:12.119Z,8.16
2022-11-09T00:20:44.482Z,8.19
2022-11-09T00:23:14.281Z,8.24
2022-11-09T00:25:41.129Z,8.20
2022-11-09T00:28:07.979Z,8.16
2022-11-09T00:30:35.103Z,8.18
2022-11-09T00:33:02.013Z,8.18
2022-11-09T00:35:28.889Z,8.26
2022-11-09T00:37:58.945Z,8.30
2022-11-09T00:40:28.738Z,8.27
2022-11-09T00:43:00.059Z,8.21
2022-11-09T00:45:26.930Z,8.21
2022-11-09T00:47:56.563Z,8.28
2022-11-09T00:50:26.806Z,8.29
2022-11-09T00:52:56.489Z,8.24
2022-11-09T00:55:27.022Z,8.24
2022-11-09T00:57:54.390Z,8.34
2022-11-09T01:00:23.909Z,8.41
2022-11-09T01:02:55.767Z,8.54
2022-11-09T01:05:22.612Z,8.36
2022-11-09T01:07:49.537Z,8.65
2022-11-09T01:10:16.781Z,8.49
2022-11-09T01:12:43.617Z,8.53
2022-11-09T01:15:10.626Z,8.65
2022-11-09T01:17:37.746Z,8.54
2022-11-09T01:20:04.902Z,8.49
2022-11-09T01:22:31.779Z,8.43
2022-11-09T01:24:58.941Z,8.32
2022-11-09T01:27:25.798Z,8.56
2022-11-09T01:29:52.660Z,8.55
2022-11-09T01:32:19.849Z,8.36
2022-11-09T01:34:46.694Z,8.23
2022-11-09T01:37:13.575Z,8.24
2022-11-09T01:39:40.713Z,8.06
2022-11-09T01:42:07.574Z,8.24
2022-11-09T01:44:38.454Z,8.32
2022-11-09T01:47:23.773Z,8.25
2022-11-09T01:49:58.867Z,8.30
2022-11-09T01:52:31.845Z,8.20
2022-11-09T01:55:03.313Z,8.01
2022-11-09T01:57:38.352Z,7.99
2022-11-09T02:00:11.209Z,8.13
2022-11-09T02:02:46.512Z,8.11
2022-11-09T02:05:18.057Z,8.04
2022-11-09T02:07:45.408Z,8.02
2022-11-09T02:10:26.835Z,7.90
2022-11-09T02:12:54.511Z,7.83
2022-11-09T02:15:23.815Z,7.81
2022-11-09T02:17:55.844Z,7.87
2022-11-09T02:20:23.672Z,7.92
2022-11-09T02:22:51.530Z,7.88
2022-11-09T02:25:18.425Z,7.88
2022-11-09T02:27:45.820Z,7.99
2022-11-09T02:30:14.425Z,7.87
2022-11-09T02:32:41.340Z,7.96
2022-11-09T02:35:08.489Z,7.85
2022-11-09T02:37:38.337Z,7.88
2022-11-09T02:40:38.336Z,7.81
2022-11-09T02:43:07.747Z,7.78
2022-11-09T02:45:34.628Z,7.70
2022-11-09T02:48:01.535Z,7.65
2022-11-09T02:50:28.730Z,7.59
2022-11-09T02:52:58.877Z,7.64
2022-11-09T02:55:29.070Z,7.58
2022-11-09T02:58:00.129Z,7.50
2022-11-09T03:00:27.353Z,7.53
2022-11-09T03:02:57.584Z,7.65
2022-11-09T03:05:28.762Z,7.67
2022-11-09T03:07:56.718Z,7.70
2022-11-09T03:10:27.088Z,7.60
2022-11-09T03:12:58.076Z,7.67
2022-11-09T03:15:28.093Z,7.61
2022-11-09T03:17:56.363Z,7.65
2022-11-09T03:20:27.517Z,7.57
2022-11-09T03:22:59.174Z,7.51
2022-11-09T03:25:29.804Z,7.53
2022-11-09T03:28:02.408Z,7.54
2022-11-09T03:30:29.868Z,7.56
2022-11-09T03:32:59.434Z,7.50
2022-11-09T03:35:29.223Z,7.51
2022-11-09T03:37:56.867Z,7.55
2022-11-09T03:40:27.522Z,7.49
2022-11-09T03:42:57.785Z,7.48
2022-11-09T03:45:28.465Z,7.46
2022-11-09T03:48:00.451Z,7.47
2022-11-09T03:50:28.910Z,7.49
2022-11-09T03:52:56.102Z,7.43
2022-11-09T03:55:25.858Z,7.49
2022-11-09T03:57:56.124Z,7.49
2022-11-09T04:00:26.106Z,7.59
2022-11-09T04:02:56.168Z,7.61
2022-11-09T04:05:23.024Z,7.53
2022-11-09T04:07:54.915Z,7.46
2022-11-09T04:10:23.060Z,7.42
2022-11-09T04:12:49.933Z,7.40
2022-11-09T04:15:17.118Z,7.49
2022-11-09T04:17:47.335Z,7.43
2022-11-09T04:20:14.248Z,7.41
2022-11-09T04:22:41.133Z,7.40
2022-11-09T04:25:08.314Z,7.38
2022-11-09T04:27:35.150Z,7.41
2022-11-09T04:30:02.057Z,7.43
2022-11-09T04:32:29.169Z,7.46
2022-11-09T04:34:56.085Z,7.39
2022-11-09T04:37:22.980Z,7.44
2022-11-09T04:39:50.090Z,7.44
2022-11-09T04:42:16.947Z,7.45
2022-11-09T04:44:43.810Z,7.48
2022-11-09T04:47:10.924Z,7.40
2022-11-09T04:49:37.816Z,7.44
2022-11-09T04:52:04.789Z,7.41
2022-11-09T04:54:31.925Z,7.40
2022-11-09T04:56:58.768Z,7.49
2022-11-09T04:59:25.708Z,7.45
2022-11-09T05:01:52.829Z,7.48
2022-11-09T05:04:19.698Z,7.46
2022-11-09T05:06:46.714Z,7.66
2022-11-09T05:09:13.892Z,7.68
2022-11-09T05:11:40.796Z,7.68
2022-11-09T05:14:07.766Z,7.64
2022-11-09T05:16:34.883Z,7.60
2022-11-09T05:19:01.767Z,7.52
2022-11-09T05:21:28.645Z,7.53
2022-11-09T05:24:01.530Z,7.59
2022-11-09T05:26:33.653Z,7.62
2022-11-09T05:29:03.433Z,7.78
2022-11-09T05:31:30.585Z,7.70
2022-11-09T05:33:57.780Z,7.75
2022-11-09T05:36:25.583Z,7.67
2022-11-09T05:38:52.492Z,7.66
2022-11-09T05:41:19.414Z,7.71
2022-11-09T05:43:46.736Z,7.65
2022-11-09T05:46:14.477Z,7.65
2022-11-09T05:48:41.873Z,7.71
2022-11-09T05:51:10.580Z,7.71
2022-11-09T05:53:41.053Z,7.58
2022-11-09T05:56:12.975Z,7.58
2022-11-09T05:58:41.326Z,7.53
2022-11-09T06:01:10.893Z,7.51
2022-11-09T06:03:40.353Z,7.53
2022-11-09T06:06:09.046Z,7.52
2022-11-09T06:08:36.493Z,7.51
2022-11-09T06:11:05.740Z,7.51
2022-11-09T06:13:34.140Z,7.58
2022-11-09T06:16:02.636Z,7.61
2022-11-09T06:18:30.832Z,7.63
2022-11-09T06:20:59.647Z,7.51
2022-11-09T06:23:26.800Z,7.54
2022-11-09T06:25:57.214Z,7.48
2022-11-09T06:28:24.140Z,7.52
2022-11-09T06:30:51.007Z,7.43
2022-11-09T06:33:18.504Z,7.24
2022-11-09T06:35:45.646Z,7.33
2022-11-09T06:38:12.515Z,7.31
2022-11-09T06:40:39.770Z,7.21
2022-11-09T06:43:06.780Z,7.21
2022-11-09T06:45:33.747Z,7.13
2022-11-09T06:48:02.954Z,7.26
2022-11-09T06:50:34.223Z,7.28
2022-11-09T06:53:06.610Z,7.32
2022-11-09T06:55:34.817Z,7.17
2022-11-09T06:58:06.769Z,7.26
2022-11-09T07:00:33.682Z,7.28
2022-11-09T07:03:00.753Z,7.24
2022-11-09T07:05:27.860Z,7.29
2022-11-09T07:07:58.012Z,7.32
2022-11-09T07:10:27.881Z,7.21
2022-11-09T07:12:58.629Z,7.28
2022-11-09T07:15:28.233Z,7.27
2022-11-09T07:17:59.328Z,7.19
2022-11-09T07:20:29.337Z,7.13
2022-11-09T07:22:59.772Z,7.09
2022-11-09T07:25:29.557Z,7.13
2022-11-09T07:28:08.522Z,7.19
2022-11-09T07:30:36.787Z,7.18
2022-11-09T07:33:10.598Z,7.10
2022-11-09T07:35:38.756Z,7.15
2022-11-09T07:38:06.132Z,7.08
2022-11-09T07:40:33.326Z,7.07
2022-11-09T07:43:01.045Z,7.10
2022-11-09T07:45:29.346Z,7.13
2022-11-09T07:48:01.477Z,7.13
2022-11-09T07:50:30.070Z,7.19
2022-11-09T07:52:58.189Z,7.40
2022-11-09T07:55:28.831Z,7.28
2022-11-09T07:58:00.140Z,7.40
2022-11-09T08:00:31.680Z,7.56
2022-11-09T08:03:01.598Z,7.64
2022-11-09T08:05:28.467Z,7.34
2022-11-09T08:07:59.788Z,7.35
2022-11-09T08:10:31.126Z,7.22
2022-11-09T08:13:03.201Z,7.17
2022-11-09T08:15:30.839Z,7.25
2022-11-09T08:18:02.104Z,7.23
2022-11-09T08:20:31.921Z,7.46
2022-11-09T08:23:03.676Z,7.58
2022-11-09T08:25:33.734Z,7.38
2022-11-09T08:28:01.013Z,7.59
2022-11-09T08:30:27.885Z,7.56
2022-11-09T08:32:54.884Z,7.47
2022-11-09T08:35:27.205Z,7.64
2022-11-09T08:37:59.785Z,7.67
2022-11-09T08:40:30.845Z,7.63
2022-11-09T08:43:01.548Z,7.77
2022-11-09T08:45:31.735Z,7.80
2022-11-09T08:47:59.921Z,7.88
2022-11-09T08:50:27.930Z,7.90
2022-11-09T08:52:58.256Z,8.04
2022-11-09T08:55:27.969Z,7.97
2022-11-09T08:57:59.821Z,7.90
2022-11-09T09:00:29.896Z,7.93
2022-11-09T09:02:57.081Z,7.90
2022-11-09T09:05:26.868Z,8.11
2022-11-09T09:07:53.695Z,8.11
2022-11-09T09:10:20.841Z,8.13
2022-11-09T09:12:47.710Z,8.16
2022-11-09T09:15:14.580Z,8.20
2022-11-09T09:17:41.696Z,8.15
2022-11-09T09:20:08.771Z,8.11
2022-11-09T09:22:35.837Z,8.07
2022-11-09T09:25:03.245Z,8.28
2022-11-09T09:27:30.298Z,8.06
2022-11-09T09:29:57.726Z,8.17
2022-11-09T09:32:24.901Z,8.34
2022-11-09T09:34:51.912Z,8.41
2022-11-09T09:37:19.095Z,8.43
2022-11-09T09:39:46.199Z,8.39
2022-11-09T09:42:17.713Z,8.46
2022-11-09T09:44:59.617Z,8.60
2022-11-09T09:47:54.700Z,8.44
2022-11-09T09:50:43.923Z,8.48
2022-11-09T09:53:26.653Z,8.43
2022-11-09T09:56:06.237Z,8.59
2022-11-09T09:58:34.829Z,8.72
2022-11-09T10:01:15.413Z,8.73
2022-11-09T10:03:42.449Z,8.54
2022-11-09T10:06:28.056Z,8.66
2022-11-09T10:09:07.068Z,8.76
2022-11-09T10:11:47.487Z,8.86
2022-11-09T10:14:17.239Z,8.78
2022-11-09T10:17:14.728Z,8.84
2022-11-09T10:20:15.561Z,8.95
2022-11-09T10:22:57.377Z,9.05
2022-11-09T10:25:43.997Z,8.91
2022-11-09T10:28:17.093Z,9.03
2022-11-09T10:30:44.588Z,9.06
2022-11-09T10:33:11.308Z,9.15
2022-11-09T10:38:31.663Z,9.02
2022-11-09T10:41:37.515Z,9.02
2022-11-09T10:44:23.869Z,8.99
2022-11-09T10:47:11.202Z,9.11
2022-11-09T10:50:16.371Z,9.20
2022-11-09T10:53:20.532Z,9.23
2022-11-09T10:56:21.812Z,9.22
2022-11-09T10:59:35.515Z,9.38
2022-11-09T11:02:26.538Z,9.03
2022-11-09T11:05:17.619Z,9.11
2022-11-09T11:08:39.978Z,9.25
2022-11-09T11:11:34.303Z,9.24
2022-11-09T11:14:30.490Z,9.31
2022-11-09T11:17:27.333Z,9.23
2022-11-09T11:20:36.253Z,9.27
2022-11-09T11:23:26.168Z,9.40
2022-11-09T11:26:20.926Z,9.36
2022-11-09T11:29:15.229Z,9.31
2022-11-09T11:32:00.756Z,9.47
2022-11-09T11:34:59.662Z,9.63
2022-11-09T11:37:59.121Z,9.46
2022-11-09T11:41:04.248Z,9.38
2022-11-09T11:44:00.099Z,9.52
2022-11-09T11:47:04.967Z,9.64
2022-11-09T11:49:59.586Z,9.57
2022-11-09T11:52:48.088Z,9.64
2022-11-09T11:55:58.434Z,9.71
2022-11-09T11:58:53.104Z,9.62
2022-11-09T12:01:56.304Z,9.77
2022-11-09T12:04:44.545Z,9.80
2022-11-09T12:07:45.154Z,9.74
2022-11-09T12:11:00.255Z,9.86
2022-11-09T12:13:52.270Z,9.74
2022-11-09T12:16:56.567Z,9.68
2022-11-09T12:19:59.558Z,9.82
2022-11-09T12:22:57.993Z,9.62
2022-11-09T12:26:22.899Z,9.62
2022-11-09T12:29:14.238Z,9.64
2022-11-09T12:32:11.860Z,9.65
2022-11-09T12:35:15.389Z,9.45
2022-11-09T12:38:11.304Z,9.40
2022-11-09T12:41:05.366Z,9.56
2022-11-09T12:43:59.430Z,9.59
2022-11-09T12:47:03.876Z,9.47
2022-11-09T12:49:49.319Z,9.54
2022-11-09T12:52:34.685Z,9.59
2022-11-09T12:55:40.963Z,9.39
2022-11-09T12:58:34.699Z,9.36
2022-11-09T13:01:26.390Z,9.38
2022-11-09T13:04:17.678Z,9.43
2022-11-09T13:07:03.146Z,9.36
2022-11-09T13:09:56.570Z,9.26
2022-11-09T13:12:42.992Z,9.38
2022-11-09T13:15:31.050Z,9.48
2022-11-09T13:18:46.610Z,9.49
2022-11-09T13:21:34.882Z,9.38
2022-11-09T13:24:35.638Z,9.41
2022-11-09T13:27:32.711Z,9.34
2022-11-09T13:30:28.390Z,9.31
2022-11-09T13:33:20.133Z,9.27
2022-11-09T13:36:08.182Z,9.32
2022-11-09T13:39:31.905Z,9.36
2022-11-09T13:42:36.252Z,9.40
2022-11-09T13:45:37.077Z,9.52
2022-11-09T13:48:36.243Z,9.58
2022-11-09T13:51:42.269Z,9.55
2022-11-09T13:54:35.193Z,9.42
2022-11-09T13:57:21.150Z,9.23
2022-11-09T14:00:07.714Z,9.28
2022-11-09T14:03:13.102Z,9.44
2022-11-09T14:06:00.766Z,9.48
2022-11-09T14:08:46.810Z,9.49
2022-11-09T14:11:54.411Z,9.33
2022-11-09T14:14:51.811Z,9.36
2022-11-09T14:17:43.225Z,9.24
2022-11-09T14:20:55.130Z,9.23
2022-11-09T14:23:40.625Z,9.29
2022-11-09T14:26:27.137Z,9.40
2022-11-09T14:29:22.139Z,9.48
2022-11-09T14:32:35.860Z,9.31
2022-11-09T14:35:29.329Z,9.35
2022-11-09T14:38:24.611Z,9.30
2022-11-09T14:41:25.565Z,9.42
2022-11-09T14:44:16.593Z,9.51
2022-11-09T14:47:02.358Z,9.37
2022-11-09T14:49:48.612Z,9.41
2022-11-09T14:52:34.074Z,9.46
2022-11-09T14:55:20.911Z,9.25
2022-11-09T14:58:06.351Z,9.30
2022-11-09T15:01:10.635Z,9.21
2022-11-09T15:04:09.858Z,9.09
2022-11-09T15:07:02.478Z,9.12
2022-11-09T15:09:51.583Z,9.27
2022-11-09T15:12:39.201Z,9.07
2022-11-09T15:15:32.891Z,9.18
2022-11-09T15:18:21.684Z,9.07
2022-11-09T15:21:12.116Z,9.11
2022-11-09T15:24:09.686Z,9.01
2022-11-09T15:26:56.130Z,9.00
2022-11-09T15:29:42.927Z,9.02
2022-11-09T15:32:33.662Z,8.93
2022-11-09T15:35:19.814Z,8.96
2022-11-09T15:38:04.906Z,8.88
2022-11-09T15:40:50.196Z,8.90
2022-11-09T15:43:35.329Z,8.90
2022-11-09T15:46:26.189Z,8.93
2022-11-09T15:49:25.854Z,8.83
2022-11-09T15:52:11.842Z,8.86
2022-11-09T15:54:57.349Z,8.81
2022-11-09T15:57:43.357Z,8.83
2022-11-09T16:00:28.657Z,8.87
2022-11-09T16:03:17.256Z,8.83
2022-11-09T16:06:02.711Z,8.80
2022-11-09T16:08:49.152Z,8.79
2022-11-09T16:11:34.479Z,8.82
2022-11-09T16:14:22.028Z,8.84
2022-11-09T16:17:07.507Z,8.83
2022-11-09T16:19:53.181Z,8.87
2022-11-09T16:22:38.457Z,8.87
2022-11-09T16:25:25.005Z,8.84
2022-11-09T16:28:10.740Z,8.88
2022-11-09T16:30:55.917Z,8.89
2022-11-09T16:33:41.572Z,8.98
2022-11-09T16:36:27.997Z,8.94
2022-11-09T16:39:17.075Z,8.90
2022-11-09T16:42:07.021Z,8.93
2022-11-09T16:44:53.051Z,8.98
2022-11-09T16:47:43.225Z,8.96
2022-11-09T16:50:31.563Z,8.85
2022-11-09T16:53:16.687Z,8.97
2022-11-09T16:56:02.287Z,8.95
2022-11-09T16:58:48.477Z,8.94
2022-11-09T17:01:33.853Z,8.92
2022-11-09T17:04:19.306Z,8.92
2022-11-09T17:07:04.947Z,8.94
2022-11-09T17:09:50.644Z,8.99
2022-11-09T17:12:36.050Z,8.99
2022-11-09T17:15:21.579Z,8.94
2022-11-09T17:18:09.384Z,8.95
2022-11-09T17:20:54.597Z,9.02
2022-11-09T17:23:43.337Z,9.15
2022-11-09T17:26:31.435Z,9.22
2022-11-09T17:29:16.909Z,9.02
2022-11-09T17:32:02.082Z,9.02
2022-11-09T17:34:47.351Z,9.04
2022-11-09T17:37:33.635Z,9.09
2022-11-09T17:40:21.331Z,9.14
2022-11-09T17:43:06.542Z,9.05
2022-11-09T17:45:52.082Z,9.07
2022-11-09T17:48:38.375Z,9.17
2022-11-09T17:51:25.099Z,9.19
2022-11-09T17:54:10.405Z,9.26
2022-11-09T17:56:55.956Z,9.15
2022-11-09T17:59:41.267Z,9.10
2022-11-09T18:02:26.583Z,9.21
2022-11-09T18:05:11.933Z,9.08
2022-11-09T18:07:57.217Z,9.24
2022-11-09T18:10:45.440Z,9.12
2022-11-09T18:13:30.675Z,9.10
2022-11-09T18:16:18.815Z,9.14
2022-11-09T18:19:05.138Z,9.29
2022-11-09T18:21:50.844Z,9.15
2022-11-09T18:24:36.702Z,9.20
2022-11-09T18:27:24.831Z,9.17
2022-11-09T18:30:15.040Z,9.33
2022-11-09T18:33:01.166Z,9.40
2022-11-09T18:35:55.824Z,9.50
2022-11-09T18:38:42.629Z,9.29
2022-11-09T18:41:27.929Z,9.27
2022-11-09T18:44:13.185Z,9.30
2022-11-09T18:47:03.797Z,9.32
2022-11-09T18:49:50.637Z,9.32
2022-11-09T18:52:36.918Z,9.27
2022-11-09T18:55:22.446Z,9.17
2022-11-09T18:58:08.195Z,9.29
2022-11-09T19:01:05.424Z,9.16
2022-11-09T19:03:55.021Z,9.23
2022-11-09T19:06:43.397Z,9.17
2022-11-09T19:09:29.434Z,9.30
2022-11-09T19:12:15.065Z,9.26
2022-11-09T19:15:00.268Z,9.24
2022-11-09T19:17:45.530Z,9.23
2022-11-09T19:20:31.193Z,9.26
2022-11-09T19:23:16.329Z,9.34
2022-11-09T19:26:02.003Z,9.30
2022-11-09T19:28:47.193Z,9.41
2022-11-09T19:31:32.753Z,9.41
2022-11-09T19:34:19.822Z,9.35
2022-11-09T19:37:05.074Z,9.31
2022-11-09T19:39:50.635Z,9.32
2022-11-09T19:42:35.853Z,9.32
2022-11-09T19:45:25.408Z,9.35
2022-11-09T19:48:11.049Z,9.33
2022-11-09T19:50:56.310Z,9.27
2022-11-09T19:53:42.686Z,9.16
2022-11-09T19:56:30.180Z,9.31
2022-11-09T19:59:16.546Z,9.40
2022-11-09T20:02:01.934Z,9.34
2022-11-09T20:04:48.470Z,9.28
2022-11-09T20:07:34.060Z,9.29
2022-11-09T20:10:19.340Z,9.36
2022-11-09T20:13:04.501Z,9.35
2022-11-09T20:15:50.109Z,9.43
2022-11-09T20:18:36.993Z,9.43
2022-11-09T20:21:22.320Z,9.35
2022-11-09T20:24:08.733Z,9.43
2022-11-09T20:26:53.966Z,9.51
2022-11-09T20:29:39.459Z,9.38
2022-11-09T20:32:25.012Z,9.35
2022-11-09T20:35:10.204Z,9.50
2022-11-09T20:37:58.209Z,9.56
2022-11-09T20:40:43.334Z,9.56
2022-11-09T20:43:29.278Z,9.39
2022-11-09T20:46:17.384Z,9.48
2022-11-09T20:49:03.705Z,9.40
2022-11-09T20:51:49.381Z,9.36
2022-11-09T20:54:34.808Z,9.56
2022-11-09T20:57:20.053Z,9.41
2022-11-09T21:00:06.070Z,9.45
2022-11-09T21:02:54.286Z,9.43
2022-11-09T21:05:39.762Z,9.40
2022-11-09T21:08:25.424Z,9.36
2022-11-09T21:11:13.000Z,9.34
2022-11-09T21:13:58.447Z,9.40
2022-11-09T21:16:43.771Z,9.43
2022-11-09T21:19:29.274Z,9.52
2022-11-09T21:22:14.496Z,9.50
2022-11-09T21:25:18.257Z,9.52
2022-11-09T21:28:22.996Z,9.57
2022-11-09T21:31:08.636Z,9.66
2022-11-09T21:33:54.141Z,9.68
2022-11-09T21:36:41.999Z,9.73
2022-11-09T21:39:27.545Z,9.63
2022-11-09T21:42:12.989Z,9.68
2022-11-09T21:44:58.119Z,9.53
2022-11-09T21:47:43.451Z,9.50
2022-11-09T21:50:31.507Z,9.57
2022-11-09T21:53:17.055Z,9.55
2022-11-09T21:56:02.676Z,9.57
2022-11-09T21:58:48.765Z,9.60
2022-11-09T22:01:34.276Z,9.58
2022-11-09T22:04:20.015Z,9.43
2022-11-09T22:07:05.369Z,9.49
2022-11-09T22:10:09.466Z,9.58
2022-11-09T22:13:25.025Z,9.65
2022-11-09T22:16:10.346Z,9.48
2022-11-09T22:19:14.733Z,9.51
2022-11-09T22:22:00.296Z,9.47
2022-11-09T22:24:47.381Z,9.64
2022-11-09T22:27:33.248Z,9.55
2022-11-09T22:30:18.881Z,9.60
2022-11-09T22:33:04.230Z,9.62
2022-11-09T22:35:56.205Z,9.61
2022-11-09T22:38:41.869Z,9.64
2022-11-09T22:41:27.032Z,9.55
2022-11-09T22:44:13.221Z,9.56
2022-11-09T22:46:58.657Z,9.49
2022-11-09T22:49:43.997Z,9.52
2022-11-09T22:52:29.281Z,9.66
2022-11-09T22:55:14.707Z,9.53
2022-11-09T22:58:00.030Z,9.52
2022-11-09T23:00:45.197Z,9.75
2022-11-09T23:03:30.833Z,9.92
2022-11-09T23:06:19.389Z,9.69
2022-11-09T23:09:05.122Z,9.48
2022-11-09T23:11:50.577Z,9.61
2022-11-09T23:14:54.083Z,9.50
2022-11-09T23:17:58.113Z,9.43
2022-11-09T23:20:43.910Z,9.69
2022-11-09T23:23:29.113Z,9.43
2022-11-09T23:26:14.432Z,9.45
2022-11-09T23:29:00.287Z,9.44
2022-11-09T23:31:45.805Z,9.42
2022-11-09T23:34:31.369Z,9.47
2022-11-09T23:37:16.674Z,9.44
2022-11-09T23:40:01.981Z,9.47
2022-11-09T23:42:47.405Z,9.47
2022-11-09T23:45:34.299Z,9.42
2022-11-09T23:48:19.691Z,9.33
2022-11-09T23:51:05.991Z,9.57
2022-11-09T23:53:51.185Z,9.57
2022-11-09T23:56:36.338Z,9.47
2022-11-09T23:59:22.945Z,9.56
